createdAt,value
2023-03-15T00:02:05.180Z,12.67
2023-03-15T00:04:33.167Z,13.10
2023-03-15T00:07:00.422Z,12.43
2023-03-15T00:09:27.465Z,13.97
2023-03-15T00:11:54.684Z,13.57
2023-03-15T00:14:21.910Z,12.90
2023-03-15T00:16:49.276Z,13.80
2023-03-15T00:19:16.128Z,15.07
2023-03-15T00:21:44.516Z,12.70
2023-03-15T00:24:11.713Z,12.90
2023-03-15T00:26:39.168Z,14.20
2023-03-15T00:29:06.018Z,11.53
2023-03-15T00:31:32.868Z,13.93
2023-03-15T00:34:00.533Z,13.70
2023-03-15T00:36:27.489Z,13.23
2023-03-15T00:38:56.422Z,13.63
2023-03-15T00:41:24.427Z,11.53
2023-03-15T00:43:52.056Z,12.43
2023-03-15T00:46:19.782Z,12.63
2023-03-15T00:48:51.533Z,9.83
2023-03-15T00:51:22.530Z,7.30
2023-03-15T00:53:51.055Z,8.10
2023-03-15T00:56:23.861Z,5.63
2023-03-15T00:58:53.016Z,4.90
2023-03-15T01:01:25.823Z,4.33
2023-03-15T01:03:52.746Z,2.53
2023-03-15T01:06:25.165Z,1.87
2023-03-15T01:08:52.510Z,4.03
2023-03-15T01:11:24.285Z,2.00
2023-03-15T01:13:56.689Z,1.20
2023-03-15T01:16:23.982Z,1.63
2023-03-15T01:18:53.993Z,1.70
2023-03-15T01:21:22.338Z,3.67
2023-03-15T01:23:49.632Z,2.00
2023-03-15T01:26:17.706Z,1.30
2023-03-15T01:28:44.946Z,1.57
2023-03-15T01:31:21.740Z,2.27
2023-03-15T01:33:48.755Z,1.47
2023-03-15T01:36:16.267Z,3.57
2023-03-15T01:38:43.269Z,2.63
2023-03-15T01:41:12.340Z,2.53
2023-03-15T01:43:39.223Z,2.73
2023-03-15T01:46:15.966Z,3.33
2023-03-15T01:49:06.909Z,3.93
2023-03-15T01:51:46.792Z,2.40
2023-03-15T01:54:20.769Z,3.87
2023-03-15T01:56:59.971Z,5.77
2023-03-15T01:59:41.816Z,3.13
2023-03-15T02:02:09.171Z,2.27
2023-03-15T02:04:40.495Z,1.80
2023-03-15T02:07:08.641Z,4.07
2023-03-15T02:09:44.365Z,2.53
2023-03-15T02:12:12.020Z,4.47
2023-03-15T02:14:39.649Z,2.80
2023-03-15T02:17:06.822Z,3.30
2023-03-15T02:19:57.578Z,3.03
2023-03-15T02:22:48.900Z,2.27
2023-03-15T02:25:25.119Z,1.63
2023-03-15T02:27:51.984Z,2.60
2023-03-15T02:30:18.946Z,1.80
2023-03-15T02:32:46.338Z,1.93
2023-03-15T02:35:13.327Z,2.10
2023-03-15T02:37:45.886Z,2.67
2023-03-15T02:40:20.545Z,2.67
2023-03-15T02:42:51.496Z,3.73
2023-03-15T02:45:18.439Z,2.70
2023-03-15T02:47:47.010Z,2.23
2023-03-15T02:50:13.911Z,2.97
2023-03-15T02:52:41.552Z,3.77
2023-03-15T02:55:09.259Z,3.73
2023-03-15T02:57:36.166Z,2.83
2023-03-15T03:00:13.222Z,2.07
2023-03-15T03:02:46.282Z,3.03
2023-03-15T03:05:14.780Z,3.60
2023-03-15T03:07:42.901Z,5.40
2023-03-15T03:10:12.158Z,5.50
2023-03-15T03:12:39.017Z,2.80
2023-03-15T03:15:06.566Z,4.60
2023-03-15T03:17:37.437Z,6.67
2023-03-15T03:20:09.905Z,3.47
2023-03-15T03:22:38.010Z,3.27
2023-03-15T03:25:06.760Z,5.87
2023-03-15T03:27:37.672Z,4.50
2023-03-15T03:30:10.835Z,4.33
2023-03-15T03:32:37.736Z,2.50
2023-03-15T03:35:04.786Z,4.53
2023-03-15T03:37:31.586Z,4.77
2023-03-15T03:39:58.840Z,5.10
2023-03-15T03:42:25.727Z,4.43
2023-03-15T03:44:54.446Z,5.13
2023-03-15T03:47:21.529Z,3.43
2023-03-15T03:49:51.504Z,5.47
2023-03-15T03:52:18.788Z,6.10
2023-03-15T03:54:45.591Z,4.47
2023-03-15T03:57:12.369Z,3.30
2023-03-15T03:59:39.149Z,5.60
2023-03-15T04:02:06.093Z,5.07
2023-03-15T04:04:32.986Z,4.37
2023-03-15T04:07:00.377Z,5.23
2023-03-15T04:09:27.298Z,6.00
2023-03-15T04:11:54.063Z,5.50
2023-03-15T04:14:20.934Z,4.23
2023-03-15T04:16:47.830Z,4.83
2023-03-15T04:19:14.663Z,5.20
2023-03-15T04:21:47.390Z,6.03
2023-03-15T04:24:14.885Z,5.80
2023-03-15T04:26:42.128Z,6.57
2023-03-15T04:29:11.801Z,7.47
2023-03-15T04:31:38.872Z,7.47
2023-03-15T04:34:08.660Z,7.70
2023-03-15T04:36:35.657Z,5.67
2023-03-15T04:39:05.989Z,8.50
2023-03-15T04:41:36.786Z,8.07
2023-03-15T04:44:04.238Z,6.13
2023-03-15T04:46:34.176Z,8.77
2023-03-15T04:49:01.802Z,8.90
2023-03-15T04:51:29.314Z,7.70
2023-03-15T04:53:56.137Z,7.70
2023-03-15T04:56:22.965Z,8.53
2023-03-15T04:58:49.912Z,6.90
2023-03-15T05:01:17.055Z,7.67
2023-03-15T05:03:43.929Z,7.27
2023-03-15T05:06:10.799Z,6.20
2023-03-15T05:08:37.999Z,7.50
2023-03-15T05:11:05.578Z,6.23
2023-03-15T05:13:32.406Z,8.73
2023-03-15T05:15:59.785Z,14.07
2023-03-15T05:18:26.607Z,10.63
2023-03-15T05:20:55.940Z,5.67
2023-03-15T05:23:24.147Z,6.07
2023-03-15T05:25:54.157Z,7.43
2023-03-15T05:28:25.569Z,7.43
2023-03-15T05:30:53.236Z,10.63
2023-03-15T05:33:20.922Z,8.47
2023-03-15T05:35:48.828Z,12.20
2023-03-15T05:38:15.970Z,10.07
2023-03-15T05:40:46.705Z,9.63
2023-03-15T05:43:13.661Z,9.30
2023-03-15T05:45:40.958Z,9.93
2023-03-15T05:48:08.371Z,10.50
2023-03-15T05:50:35.228Z,9.47
2023-03-15T05:53:02.139Z,8.53
2023-03-15T05:55:28.956Z,8.40
2023-03-15T05:57:55.788Z,7.93
2023-03-15T06:00:22.721Z,13.27
2023-03-15T06:02:49.704Z,12.13
2023-03-15T06:05:16.918Z,12.43
2023-03-15T06:07:46.804Z,10.53
2023-03-15T06:10:14.367Z,9.93
2023-03-15T06:12:41.326Z,9.23
2023-03-15T06:15:08.738Z,12.77
2023-03-15T06:26:07.426Z,9.63
2023-03-15T06:28:40.431Z,13.20
2023-03-15T06:31:11.818Z,12.17
2023-03-15T06:33:40.239Z,9.90
2023-03-15T06:36:07.638Z,11.23
2023-03-15T06:46:40.673Z,12.20
2023-03-15T06:49:07.736Z,10.10
2023-03-15T06:51:34.586Z,13.27
2023-03-15T06:54:04.468Z,15.57
2023-03-15T06:56:34.776Z,9.73
2023-03-15T06:59:01.568Z,12.57
2023-03-15T07:01:28.566Z,13.40
2023-03-15T07:03:55.543Z,10.57
2023-03-15T07:06:22.348Z,10.47
2023-03-15T07:08:49.193Z,12.27
2023-03-15T07:11:16.025Z,13.33
2023-03-15T07:13:43.721Z,12.27
2023-03-15T07:16:10.553Z,11.33
2023-03-15T07:18:37.501Z,14.57
2023-03-15T07:21:05.664Z,10.60
2023-03-15T07:23:32.486Z,12.73
2023-03-15T07:25:59.664Z,14.37
2023-03-15T07:28:27.370Z,10.53
2023-03-15T07:30:59.281Z,10.57
2023-03-15T07:33:27.720Z,13.00
2023-03-15T07:35:55.360Z,13.20
2023-03-15T07:38:24.009Z,11.47
2023-03-15T07:40:50.971Z,10.30
2023-03-15T07:43:17.926Z,10.97
2023-03-15T07:45:44.841Z,12.47
2023-03-15T07:48:11.766Z,9.07
2023-03-15T07:50:39.087Z,10.03
2023-03-15T07:53:06.387Z,11.27
2023-03-15T07:55:34.475Z,14.47
2023-03-15T07:58:02.170Z,14.57
2023-03-15T08:00:30.155Z,10.93
2023-03-15T08:02:57.129Z,8.63
2023-03-15T08:05:25.380Z,10.63
2023-03-15T08:07:52.994Z,9.00
2023-03-15T08:10:20.435Z,8.97
2023-03-15T08:12:47.306Z,13.93
2023-03-15T08:15:15.276Z,12.57
2023-03-15T08:17:42.792Z,13.30
2023-03-15T08:20:17.644Z,10.93
2023-03-15T08:22:46.560Z,11.17
2023-03-15T08:25:16.226Z,12.83
2023-03-15T08:27:43.256Z,9.20
2023-03-15T08:30:15.490Z,9.67
2023-03-15T08:32:44.430Z,9.57
2023-03-15T08:35:15.631Z,11.93
2023-03-15T08:37:47.057Z,11.27
2023-03-15T08:40:16.158Z,9.90
2023-03-15T08:42:43.040Z,7.73
2023-03-15T08:45:10.507Z,10.57
2023-03-15T08:47:38.410Z,10.27
2023-03-15T08:50:16.800Z,10.27
2023-03-15T08:52:44.041Z,8.17
2023-03-15T08:55:14.595Z,10.37
2023-03-15T08:57:43.006Z,10.07
2023-03-15T09:00:23.070Z,10.30
2023-03-15T09:02:52.574Z,8.23
2023-03-15T09:05:21.301Z,13.10
2023-03-15T09:07:48.763Z,12.13
2023-03-15T09:10:17.529Z,9.30
2023-03-15T09:12:47.425Z,8.63
2023-03-15T09:15:14.759Z,11.13
2023-03-15T09:17:42.132Z,10.53
2023-03-15T09:20:19.174Z,7.37
2023-03-15T09:22:57.677Z,8.73
2023-03-15T09:25:25.862Z,9.70
2023-03-15T09:27:53.353Z,14.10
2023-03-15T09:30:21.046Z,11.23
2023-03-15T09:32:48.217Z,8.27
2023-03-15T09:35:17.379Z,9.60
2023-03-15T09:37:44.399Z,7.77
2023-03-15T09:40:16.439Z,10.17
2023-03-15T09:43:06.756Z,6.40
2023-03-15T09:45:58.675Z,7.67
2023-03-15T09:48:43.842Z,9.70
2023-03-15T09:51:17.741Z,9.63
2023-03-15T09:53:56.445Z,9.00
2023-03-15T09:56:31.088Z,9.93
2023-03-15T09:59:02.814Z,9.30
2023-03-15T10:01:32.271Z,7.50
2023-03-15T10:04:08.081Z,8.13
2023-03-15T10:07:16.992Z,10.60
2023-03-15T10:09:45.881Z,9.37
2023-03-15T10:12:14.034Z,8.13
2023-03-15T10:15:02.069Z,8.03
2023-03-15T10:17:47.716Z,9.63
2023-03-15T10:20:24.056Z,7.57
2023-03-15T10:23:06.859Z,6.83
2023-03-15T10:25:37.261Z,9.83
2023-03-15T10:28:17.241Z,10.33
2023-03-15T10:30:52.543Z,8.70
2023-03-15T10:33:38.245Z,8.80
2023-03-15T10:36:18.539Z,7.20
2023-03-15T10:38:46.420Z,7.73
2023-03-15T10:41:29.087Z,7.90
2023-03-15T10:44:00.458Z,9.97
2023-03-15T10:46:28.404Z,8.60
2023-03-15T10:49:00.706Z,7.97
2023-03-15T10:51:31.508Z,10.90
2023-03-15T10:54:13.336Z,8.87
2023-03-15T10:56:59.330Z,8.17
2023-03-15T10:59:28.791Z,9.97
2023-03-15T11:02:16.686Z,9.13
2023-03-15T11:04:48.302Z,8.73
2023-03-15T11:07:15.181Z,7.63
2023-03-15T11:09:58.703Z,6.93
2023-03-15T11:12:29.477Z,9.03
2023-03-15T11:15:00.465Z,7.10
2023-03-15T11:17:31.444Z,9.70
2023-03-15T11:20:13.167Z,9.30
2023-03-15T11:22:40.366Z,11.27
2023-03-15T11:25:20.663Z,8.97
2023-03-15T11:27:53.609Z,9.67
2023-03-15T11:30:27.188Z,11.57
2023-03-15T11:32:54.590Z,7.17
2023-03-15T11:35:38.687Z,9.77
2023-03-15T11:38:49.442Z,8.37
2023-03-15T11:41:36.716Z,12.23
2023-03-15T11:44:06.168Z,8.90
2023-03-15T11:47:03.832Z,9.30
2023-03-15T11:49:37.833Z,10.73
2023-03-15T11:52:08.409Z,7.07
2023-03-15T11:54:35.297Z,11.40
2023-03-15T11:57:06.709Z,7.47
2023-03-15T11:59:40.534Z,7.83
2023-03-15T12:02:10.183Z,7.87
2023-03-15T12:05:26.746Z,6.87
2023-03-15T12:11:44.566Z,9.80
2023-03-15T12:14:41.072Z,7.70
2023-03-15T12:17:28.797Z,7.20
2023-03-15T12:20:12.074Z,8.33
2023-03-15T12:22:53.092Z,7.83
2023-03-15T12:25:54.359Z,6.43
2023-03-15T12:28:53.514Z,7.13
2023-03-15T12:32:14.800Z,6.63
2023-03-15T12:34:58.277Z,10.20
2023-03-15T12:37:39.158Z,7.93
2023-03-15T12:40:26.860Z,8.53
2023-03-15T12:42:57.434Z,8.00
2023-03-15T12:45:37.371Z,7.23
2023-03-15T12:48:12.941Z,6.90
2023-03-15T12:50:45.960Z,6.67
2023-03-15T12:53:31.244Z,7.77
2023-03-15T13:01:29.350Z,7.10
2023-03-15T13:03:58.553Z,6.57
2023-03-15T13:06:37.657Z,8.87
2023-03-15T13:09:41.688Z,10.10
2023-03-15T13:12:23.901Z,9.47
2023-03-15T13:15:24.625Z,9.43
2023-03-15T13:18:03.771Z,9.50
2023-03-15T13:20:48.495Z,7.27
2023-03-15T13:23:30.051Z,7.00
2023-03-15T13:26:19.535Z,9.33
2023-03-15T13:29:15.215Z,10.20
2023-03-15T13:31:45.360Z,12.10
2023-03-15T13:34:20.807Z,10.47
2023-03-15T13:36:58.998Z,9.27
2023-03-15T13:39:33.824Z,9.23
2023-03-15T13:42:07.005Z,8.27
2023-03-15T13:44:33.891Z,8.73
2023-03-15T13:47:00.928Z,9.03
2023-03-15T13:49:35.044Z,7.53
2023-03-15T13:52:12.162Z,5.57
2023-03-15T13:54:40.414Z,10.60
2023-03-15T13:57:12.950Z,6.73
2023-03-15T14:00:07.056Z,8.80
2023-03-15T14:02:37.401Z,9.87
2023-03-15T14:05:09.325Z,9.73
2023-03-15T14:07:36.147Z,9.17
2023-03-15T14:10:27.607Z,7.93
2023-03-15T14:12:57.328Z,8.27
2023-03-15T14:15:26.070Z,7.73
2023-03-15T14:18:08.290Z,8.33
2023-03-15T14:20:47.079Z,6.37
2023-03-15T14:23:21.894Z,7.23
2023-03-15T14:25:54.877Z,9.03
2023-03-15T14:28:22.199Z,8.27
2023-03-15T14:30:55.194Z,9.73
2023-03-15T14:33:42.128Z,8.97
2023-03-15T14:36:23.670Z,9.23
2023-03-15T14:38:56.994Z,9.47
2023-03-15T14:41:33.510Z,9.20
2023-03-15T14:44:01.618Z,8.23
2023-03-15T14:46:30.663Z,8.63
2023-03-15T14:48:57.677Z,9.10
2023-03-15T14:51:25.774Z,7.07
2023-03-15T14:53:58.786Z,11.40
2023-03-15T14:56:26.268Z,10.68
2023-03-15T14:58:56.421Z,10.97
2023-03-15T15:01:27.332Z,9.57
2023-03-15T15:04:01.752Z,9.43
2023-03-15T15:06:32.298Z,9.23
2023-03-15T15:09:01.550Z,10.53
2023-03-15T15:11:28.553Z,10.67
2023-03-15T15:13:56.676Z,10.02
2023-03-15T15:16:23.749Z,10.75
2023-03-15T15:18:50.705Z,9.73
2023-03-15T15:21:33.872Z,7.40
2023-03-15T15:24:03.899Z,11.27
2023-03-15T15:26:32.291Z,10.07
2023-03-15T15:29:00.826Z,10.57
2023-03-15T15:31:29.866Z,10.67
2023-03-15T15:33:57.341Z,9.43
2023-03-15T15:36:27.765Z,11.93
2023-03-15T15:38:55.294Z,10.00
2023-03-15T15:41:31.470Z,11.47
2023-03-15T15:44:00.601Z,7.83
2023-03-15T15:46:27.857Z,7.60
2023-03-15T15:48:54.867Z,9.20
2023-03-15T15:51:30.546Z,13.37
2023-03-15T15:54:01.576Z,9.57
2023-03-15T15:56:44.161Z,10.90
2023-03-15T15:59:17.864Z,9.63
2023-03-15T16:01:59.381Z,10.23
2023-03-15T16:04:27.719Z,8.10
2023-03-15T16:06:58.664Z,8.47
2023-03-15T16:09:28.322Z,9.60
2023-03-15T16:11:55.933Z,12.43
2023-03-15T16:14:22.817Z,8.93
2023-03-15T16:16:50.102Z,10.03
2023-03-15T16:19:16.890Z,8.43
2023-03-15T16:21:49.822Z,9.43
2023-03-15T16:24:24.491Z,12.37
2023-03-15T16:26:53.320Z,10.47
2023-03-15T16:29:23.608Z,9.50
2023-03-15T16:32:10.092Z,11.98
2023-03-15T16:34:41.638Z,11.70
2023-03-15T16:37:18.122Z,11.23
2023-03-15T16:39:47.994Z,10.77
2023-03-15T16:42:16.334Z,11.70
2023-03-15T16:44:43.365Z,9.70
2023-03-15T16:47:11.207Z,12.13
2023-03-15T16:49:38.282Z,9.77
2023-03-15T16:52:08.806Z,10.23
2023-03-15T16:54:41.380Z,10.70
2023-03-15T16:57:30.284Z,7.60
2023-03-15T16:59:57.377Z,8.10
2023-03-15T17:02:29.817Z,6.73
2023-03-15T17:05:20.049Z,8.43
2023-03-15T17:07:49.298Z,6.47
2023-03-15T17:10:38.037Z,9.20
2023-03-15T17:13:05.168Z,7.93
2023-03-15T17:15:32.312Z,10.20
2023-03-15T17:18:00.427Z,12.20
2023-03-15T17:20:29.422Z,8.43
2023-03-15T17:23:04.420Z,10.07
2023-03-15T17:25:32.433Z,9.60
2023-03-15T17:30:59.599Z,8.33
2023-03-15T17:33:32.341Z,8.30
2023-03-15T17:35:59.607Z,8.60
2023-03-15T17:38:32.784Z,10.93
2023-03-15T17:40:59.800Z,10.40
2023-03-15T17:43:26.790Z,10.53
2023-03-15T17:45:53.695Z,7.63
2023-03-15T17:48:21.091Z,10.80
2023-03-15T17:50:47.942Z,8.80
2023-03-15T17:53:17.916Z,12.60
2023-03-15T17:55:46.801Z,12.93
2023-03-15T17:58:36.760Z,12.30
2023-03-15T18:01:04.793Z,13.40
2023-03-15T18:03:32.234Z,9.17
2023-03-15T18:06:01.584Z,13.27
2023-03-15T18:08:28.484Z,14.03
2023-03-15T18:10:55.791Z,10.63
2023-03-15T18:13:23.616Z,14.57
2023-03-15T18:15:51.592Z,14.23
2023-03-15T18:18:19.520Z,13.40
2023-03-15T18:20:47.471Z,13.00
2023-03-15T18:23:16.496Z,11.93
2023-03-15T18:25:44.094Z,18.30
2023-03-15T18:28:11.564Z,14.70
2023-03-15T18:30:41.691Z,17.33
2023-03-15T18:33:08.763Z,12.97
2023-03-15T18:35:36.974Z,13.17
2023-03-15T18:38:05.016Z,14.33
2023-03-15T18:40:34.045Z,12.27
2023-03-15T18:43:01.481Z,14.93
2023-03-15T18:45:34.028Z,13.63
2023-03-15T18:48:15.661Z,13.77
2023-03-15T18:50:52.281Z,18.13
2023-03-15T18:53:19.767Z,15.23
2023-03-15T18:55:46.624Z,17.23
2023-03-15T18:58:13.589Z,16.37
2023-03-15T19:00:41.575Z,15.90
2023-03-15T19:03:08.838Z,15.40
2023-03-15T19:05:42.147Z,15.53
2023-03-15T19:08:10.170Z,18.90
2023-03-15T19:10:37.452Z,16.47
2023-03-15T19:13:04.891Z,15.53
2023-03-15T19:15:34.994Z,17.77
2023-03-15T19:18:02.432Z,16.23
2023-03-15T19:20:38.210Z,19.80
2023-03-15T19:23:05.219Z,18.37
2023-03-15T19:25:32.082Z,21.17
2023-03-15T19:27:58.923Z,15.17
2023-03-15T19:30:27.631Z,19.57
2023-03-15T19:32:55.214Z,17.00
2023-03-15T19:35:22.363Z,18.20
2023-03-15T19:37:58.377Z,21.57
2023-03-15T19:40:25.581Z,24.73
2023-03-15T19:42:52.707Z,19.87
2023-03-15T19:45:19.867Z,19.97
2023-03-15T19:47:47.346Z,21.40
2023-03-15T19:50:34.093Z,23.93
2023-03-15T20:02:25.166Z,22.70
2023-03-15T20:05:26.990Z,18.10
2023-03-15T20:08:39.437Z,17.03
2023-03-15T20:23:57.424Z,18.90
2023-03-15T20:26:25.305Z,18.83
2023-03-15T20:28:52.786Z,18.23
2023-03-15T20:31:20.138Z,21.73
2023-03-15T20:33:50.911Z,15.77
2023-03-15T20:36:19.707Z,20.37
2023-03-15T20:38:49.690Z,18.07
2023-03-15T20:41:22.532Z,19.20
2023-03-15T20:43:49.386Z,18.13
2023-03-15T20:46:22.886Z,17.03
2023-03-15T20:48:49.894Z,20.17
2023-03-15T21:00:50.890Z,17.93
2023-03-15T21:10:12.272Z,20.07
2023-03-15T21:13:09.535Z,24.93
2023-03-15T21:15:59.119Z,19.93
2023-03-15T21:18:26.196Z,22.63
2023-03-15T21:25:01.497Z,21.00
2023-03-15T21:27:28.622Z,22.53
2023-03-15T21:29:55.692Z,27.37
2023-03-15T21:32:22.821Z,22.87
2023-03-15T21:34:49.935Z,23.87
2023-03-15T21:37:17.259Z,26.03
2023-03-15T21:39:44.116Z,21.53
2023-03-15T21:42:10.966Z,26.37
2023-03-15T21:44:38.105Z,23.27
2023-03-15T21:47:05.741Z,24.57
2023-03-15T21:49:32.902Z,28.43
2023-03-15T21:52:00.577Z,22.73
2023-03-15T21:54:29.253Z,28.67
2023-03-15T21:56:56.830Z,32.93
2023-03-15T21:59:27.911Z,29.13
2023-03-15T22:01:55.911Z,31.80
2023-03-15T22:04:37.294Z,28.77
2023-03-15T22:07:04.231Z,33.97
2023-03-15T22:09:31.182Z,30.97
2023-03-15T22:11:57.981Z,32.40
2023-03-15T22:14:24.860Z,33.27
2023-03-15T22:16:54.619Z,33.33
2023-03-15T22:19:21.690Z,31.07
2023-03-15T22:21:48.667Z,35.23
2023-03-15T22:24:15.547Z,35.33
2023-03-15T22:26:43.318Z,36.30
2023-03-15T22:29:11.018Z,40.87
2023-03-15T22:31:39.837Z,37.17
2023-03-15T22:34:06.829Z,35.03
2023-03-15T22:36:48.579Z,41.37
2023-03-15T22:39:26.206Z,40.57
2023-03-15T22:41:53.146Z,35.97
2023-03-15T22:44:20.097Z,29.70
2023-03-15T22:46:53.040Z,32.37
2023-03-15T22:49:20.020Z,28.17
2023-03-15T22:51:46.841Z,31.57
2023-03-15T22:54:13.878Z,31.10
2023-03-15T22:56:41.149Z,33.10
2023-03-15T22:59:07.962Z,31.20
2023-03-15T23:01:34.783Z,35.27
2023-03-15T23:04:08.178Z,32.97
2023-03-15T23:06:35.134Z,31.13
2023-03-15T23:09:01.941Z,33.07
2023-03-15T23:11:28.781Z,33.23
2023-03-15T23:13:55.706Z,30.00
2023-03-15T23:16:23.512Z,31.53
2023-03-15T23:18:50.446Z,28.43
2023-03-15T23:21:17.335Z,28.27
2023-03-15T23:23:44.286Z,27.80
2023-03-15T23:26:13.048Z,31.90
2023-03-15T23:28:40.027Z,28.67
2023-03-15T23:31:07.699Z,31.03
2023-03-15T23:33:37.900Z,32.00
2023-03-15T23:36:07.804Z,31.37
2023-03-15T23:38:34.903Z,29.83
2023-03-15T23:41:02.730Z,30.93
2023-03-15T23:43:29.885Z,30.77
2023-03-15T23:45:58.337Z,31.27
2023-03-15T23:48:26.284Z,30.43
2023-03-15T23:50:58.075Z,31.97
2023-03-15T23:53:25.854Z,27.63
2023-03-15T23:55:52.902Z,33.20
2023-03-15T23:58:20.756Z,28.13
